Flight Track Log - Related Links

Times and Time Zones

All times are in EDT time to prevent confusion due to time zone crossing. See the BAW196 flight status page for this flight to view local times or setup timezone preferences in your user account.

Time Position Orientation Groundspeed Altitude Reporting Facility
EDT Latitude Longitude Course Direction KTS MPH feet Rate Location/Type
Wed 09:53:00 PM 29.9572 -95.3390 152° Southeast 174 200 1,000  Level FlightAware ADS-B
Wed 09:53:16 PM 29.9465 -95.3325 152° Southeast 170 196 1,500 1,565 Climbing FlightAware ADS-B
Wed 09:53:23 PM 29.9411 -95.3292 152° Southeast 175 201 1,600 1,000 Climbing FlightAware ADS-B
Wed 09:53:46 PM 29.9230 -95.3285 178° South 184 212 2,000 1,034 Climbing FlightAware ADS-B
Wed 09:53:52 PM 29.9186 -95.3319 214° Southwest 190 219 2,100 1,333 Climbing FlightAware ADS-B
Wed 09:53:55 PM 29.9163 -95.3346 225° Southwest 193 222 2,200 1,500 Climbing FlightAware ADS-B
Wed 09:54:00 PM 29.9139 -95.3387 236° Southwest 197 227 2,300 1,333 Climbing FlightAware ADS-B
Wed 09:54:04 PM 29.9125 -95.3424 246° West 200 230 2,400 1,800 Climbing FlightAware ADS-B
Wed 09:54:10 PM 29.9114 -95.3486 258° West 205 236 2,600 1,636 Climbing FlightAware ADS-B
Wed 09:54:15 PM 29.9115 -95.3550 271° West 211 243 2,700 1,200 Climbing FlightAware ADS-B
Wed 09:54:20 PM 29.9127 -95.3602 285° West 213 245 2,800 1,846 Climbing FlightAware ADS-B
Wed 09:54:28 PM 29.9168 -95.3686 299° West 218 251 3,100 2,000 Climbing FlightAware ADS-B
Wed 09:54:32 PM 29.9189 -95.3712 313° West 220 253 3,200 1,714 Climbing FlightAware ADS-B
Wed 09:54:35 PM 29.9215 -95.3739 318° Northwest 221 254 3,300 2,000 Climbing FlightAware ADS-B
Wed 09:54:38 PM 29.9244 -95.3761 327° Northwest 222 255 3,400 2,250 Climbing FlightAware ADS-B
Wed 09:54:43 PM 29.9291 -95.3785 336° Northwest 223 257 3,600 2,000 Climbing FlightAware ADS-B
Wed 09:54:50 PM 29.9362 -95.3803 348° North 224 258 3,800 1,636 Climbing FlightAware ADS-B
Wed 09:54:54 PM 29.9395 -95.3804 358° North 224 258 3,900 1,800 Climbing FlightAware ADS-B
Wed 09:55:00 PM 29.9463 -95.3795 North 224 258 4,100 1,714 Climbing FlightAware ADS-B
Wed 09:55:08 PM 29.9543 -95.3775 12° North 228 262 4,300 1,091 Climbing FlightAware ADS-B
Wed 09:55:22 PM 29.9696 -95.3733 13° North 241 277 4,500 828 Climbing FlightAware ADS-B
Wed 09:55:37 PM 29.9856 -95.3689 13° North 252 290 4,700 828 Climbing FlightAware ADS-B
Wed 09:55:51 PM 30.0018 -95.3640 15° North 266 306 4,900 1,034 Climbing FlightAware ADS-B
Wed 09:56:06 PM 30.0212 -95.3579 15° North 279 321 5,200 1,500 Climbing FlightAware ADS-B
Wed 09:56:19 PM 30.0368 -95.3531 15° North 284 327 5,600 1,800 Climbing FlightAware ADS-B
Wed 09:56:26 PM 30.0467 -95.3497 17° North 285 328 5,800 2,118 Climbing FlightAware ADS-B
Wed 09:56:53 PM 30.0782 -95.3343 23° Northeast 286 329 6,800 2,170 Climbing FlightAware ADS-B
Wed 09:57:13 PM 30.1031 -95.3212 24° Northeast 287 330 7,500 2,229 Climbing FlightAware ADS-B
Wed 09:57:28 PM 30.1220 -95.3112 25° Northeast 289 333 8,100 2,250 Climbing FlightAware ADS-B
Wed 09:57:37 PM 30.1326 -95.3050 28° Northeast 290 334 8,400 1,826 Climbing FlightAware ADS-B
Wed 09:57:51 PM 30.1480 -95.2935 35° Northeast 292 336 8,800 1,667 Climbing FlightAware ADS-B
Wed 09:57:55 PM 30.1523 -95.2896 38° Northeast 293 337 8,900 2,100 Climbing FlightAware ADS-B
Wed 09:58:11 PM 30.1685 -95.2737 40° Northeast 296 341 9,500 1,935 Climbing FlightAware ADS-B
Wed 09:58:26 PM 30.1843 -95.2581 40° Northeast 296 341 9,900 1,125 Climbing FlightAware ADS-B
Wed 09:59:31 PM 30.2573 -95.1855 41° Northeast 342 394 11,000 1,228 Climbing FlightAware ADS-B
Wed 10:00:33 PM 30.3356 -95.1081 40° Northeast 363 418 12,500 1,558 Climbing FlightAware ADS-B
Wed 10:02:05 PM 30.4540 -94.9905 41° Northeast 375 432 15,000 1,574 Climbing FlightAware ADS-B
Wed 10:02:35 PM 30.4941 -94.9507 41° Northeast 379 436 15,700 1,319 Climbing FlightAware ADS-B
Wed 10:04:26 PM 30.6541 -94.8142 33° Northeast 398 458 18,100 1,310 Climbing FlightAware ADS-B
Wed 10:04:57 PM 30.7017 -94.7778 33° Northeast 400 460 18,800 1,279 Climbing FlightAware ADS-B
Wed 10:06:28 PM 30.8454 -94.6670 34° Northeast 414 476 20,700 1,230 Climbing FlightAware ADS-B
Wed 10:06:59 PM 30.8947 -94.6288 34° Northeast 416 479 21,300 1,200 Climbing FlightAware ADS-B
Wed 10:07:33 PM 30.9493 -94.5866 34° Northeast 420 483 22,000 1,219 Climbing FlightAware ADS-B
Wed 10:08:03 PM 30.9987 -94.5483 34° Northeast 422 486 22,600 1,161 Climbing FlightAware ADS-B
Wed 10:08:35 PM 31.0510 -94.5077 34° Northeast 426 490 23,200 1,015 Climbing FlightAware ADS-B
Wed 10:09:08 PM 31.1048 -94.4660 34° Northeast 431 496 23,700 857 Climbing FlightAware ADS-B
Wed 10:09:38 PM 31.1556 -94.4264 34° Northeast 437 503 24,100 900 Climbing FlightAware ADS-B
Wed 10:10:08 PM 31.2069 -94.3865 34° Northeast 440 506 24,600 885 Climbing FlightAware ADS-B
Wed 10:10:39 PM 31.2594 -94.3455 34° Northeast 444 511 25,000 871 Climbing FlightAware ADS-B
Wed 10:11:10 PM 31.3125 -94.3040 34° Northeast 447 514 25,500 1,015 Climbing FlightAware ADS-B
Wed 10:11:44 PM 31.3710 -94.2581 34° Northeast 449 517 26,100 983 Climbing FlightAware ADS-B
Wed 10:13:06 PM 31.5138 -94.1462 34° Northeast 451 519 27,400 917 Climbing FlightAware ADS-B
Wed 10:14:08 PM 31.6231 -94.0600 34° Northeast 466 536 28,300 820 Climbing FlightAware ADS-B
Wed 10:15:25 PM 31.7569 -93.9586 34° Northeast 452 520 29,300 788 Climbing Fort Worth Center
Wed 10:16:25 PM 31.8650 -93.8714 34° Northeast 458 527 30,100 750 Climbing Fort Worth Center
Wed 10:17:25 PM 31.9794 -93.7814 34° Northeast 469 540 30,800 650 Climbing Fort Worth Center
Wed 10:18:25 PM 32.0917 -93.6911 34° Northeast 476 548 31,400 650 Climbing Fort Worth Center
Wed 10:19:25 PM 32.2036 -93.5933 36° Northeast 481 554 32,100 700 Climbing Fort Worth Center
Wed 10:20:25 PM 32.3175 -93.5025 34° Northeast 487 560 32,800 800 Climbing Fort Worth Center
Wed 10:21:25 PM 32.4317 -93.4114 34° Northeast 492 566 33,700 800 Climbing Fort Worth Center
Wed 10:22:25 PM 32.5478 -93.3200 34° Northeast 492 566 34,400 650 Climbing Fort Worth Center
Wed 10:23:25 PM 32.6614 -93.2258 35° Northeast 492 566 35,000 300 Climbing Fort Worth Center
Wed 10:24:25 PM 32.7731 -93.1344 35° Northeast 497 572 35,000  Level Fort Worth Center
Wed 10:26:20 PM 32.9786 -92.9725 33° Northeast 476 548 35,000  Level Memphis Center
Wed 10:27:20 PM 33.0892 -92.8789 35° Northeast 476 548 35,000  Level Memphis Center
Wed 10:28:20 PM 33.2058 -92.7878 33° Northeast 481 554 35,000  Level Memphis Center
Wed 10:29:20 PM 33.3081 -92.6739 43° Northeast 486 559 35,000  Level Memphis Center
Wed 10:30:20 PM 33.3939 -92.5444 52° Northeast 484 557 35,000  Level Memphis Center
Wed 10:31:20 PM 33.4775 -92.4094 53° Northeast 498 573 35,000  Level Memphis Center
Wed 10:32:20 PM 33.5611 -92.2792 52° Northeast 498 573 35,000  Level Memphis Center
Wed 10:33:20 PM 33.6508 -92.1464 51° Northeast 498 573 35,000  Level Memphis Center
Wed 10:34:20 PM 33.7381 -92.0158 51° Northeast 498 573 35,000  Level Memphis Center
Wed 10:35:20 PM 33.8211 -91.8850 53° Northeast 498 573 35,000  Level Memphis Center
Wed 10:36:20 PM 33.9083 -91.7539 51° Northeast 498 573 35,000  Level Memphis Center
Wed 10:37:20 PM 33.9933 -91.6097 55° Northeast 491 565 35,000  Level Memphis Center
Wed 10:38:20 PM 34.0781 -91.4781 52° Northeast 491 565 35,000  Level Memphis Center
Wed 10:39:20 PM 34.1647 -91.3489 51° Northeast 501 577 35,000  Level Memphis Center
Wed 10:40:20 PM 34.2492 -91.2114 53° Northeast 501 577 35,000  Level Memphis Center
Wed 10:41:20 PM 34.3333 -91.0792 52° Northeast 501 577 35,000  Level Memphis Center
Wed 10:42:20 PM 34.4217 -90.9464 51° Northeast 501 577 35,000  Level Memphis Center
Wed 10:43:20 PM 34.5036 -90.8083 54° Northeast 506 582 35,000  Level Memphis Center
Wed 10:44:20 PM 34.5792 -90.6875 53° Northeast 506 582 35,000  Level Memphis Center
Wed 10:45:20 PM 34.6650 -90.5542 52° Northeast 506 582 35,000  Level Memphis Center
Wed 10:46:20 PM 34.7508 -90.4178 53° Northeast 506 582 35,000  Level Memphis Center
Wed 10:47:20 PM 34.8361 -90.2811 53° Northeast 506 582 35,000  Level Memphis Center
Wed 10:48:20 PM 34.9194 -90.1494 52° Northeast 506 582 35,000  Level Memphis Center
Wed 10:49:20 PM 35.0131 -89.9969 53° Northeast 511 588 35,000  Level Memphis Center
Wed 10:50:20 PM 35.0750 -89.8369 65° Northeast 511 588 35,000  Level Memphis Center
Wed 10:51:20 PM 35.1306 -89.6742 67° East 518 596 35,000  Level Memphis Center
Wed 10:52:20 PM 35.1858 -89.5136 67° East 511 588 35,000  Level Memphis Center
Wed 10:53:20 PM 35.2350 -89.3708 67° East 511 588 35,000  Level Memphis Center
Wed 10:54:20 PM 35.2919 -89.2097 67° East 511 588 35,000  Level Memphis Center
Wed 10:55:20 PM 35.3467 -89.0511 67° East 503 579 35,000  Level Memphis Center
Wed 10:56:20 PM 35.4014 -88.8950 67° East 498 573 35,000  Level Memphis Center
Wed 11:01:36 PM 35.6930 -88.0370 67° East 509 586 35,000  Level FlightAware ADS-B
Wed 11:02:14 PM 35.7230 -87.9510 67° East 509 586 35,000  Level FlightAware ADS-B
Wed 11:03:02 PM 35.7710 -87.8040 68° East 509 586 35,000  Level FlightAware ADS-B
Wed 11:03:45 PM 35.8080 -87.6900 68° East 508 585 35,000  Level FlightAware ADS-B
Wed 11:04:28 PM 35.8470 -87.5740 67° East 506 582 35,000  Level FlightAware ADS-B
Wed 11:05:10 PM 35.8840 -87.4600 68° East 507 583 35,000  Level FlightAware ADS-B
Wed 11:05:50 PM 35.9200 -87.3530 67° East 507 583 35,000  Level FlightAware ADS-B
Wed 11:06:34 PM 35.9580 -87.2370 68° East 507 583 35,000  Level FlightAware ADS-B
Wed 11:07:14 PM 35.9930 -87.1300 68° East 507 583 35,000  Level FlightAware ADS-B
Wed 11:07:32 PM 36.0085 -87.0812 69° East 508 585 35,000  Level FlightAware ADS-B
Wed 11:08:05 PM 36.0377 -86.9917 68° East 507 583 35,000  Level FlightAware ADS-B
Wed 11:08:36 PM 36.0645 -86.9089 68° East 508 585 35,000  Level FlightAware ADS-B
Wed 11:09:15 PM 36.0984 -86.8045 68° East 508 585 35,000  Level FlightAware ADS-B
Wed 11:09:55 PM 36.1338 -86.6944 68° East 509 586 35,000  Level FlightAware ADS-B
Wed 11:10:25 PM 36.1600 -86.6136 68° East 508 585 35,000  Level FlightAware ADS-B
Wed 11:10:56 PM 36.1866 -86.5318 68° East 508 585 35,000  Level FlightAware ADS-B
Wed 11:11:29 PM 36.2120 -86.4540 68° East 507 583 35,000  Level FlightAware ADS-B
Wed 11:11:34 PM 36.2196 -86.4300 69° East 507 583 35,000  Level FlightAware ADS-B
Wed 11:12:04 PM 36.2465 -86.3465 68° East 508 585 35,000  Level FlightAware ADS-B
Wed 11:12:46 PM 36.2824 -86.2348 68° East 508 585 35,000  Level FlightAware ADS-B
Wed 11:13:17 PM 36.3094 -86.1506 68° East 507 583 35,000  Level FlightAware ADS-B
Wed 11:14:17 PM 36.3600 -85.9900 69° East 509 586 35,000  Level FlightAware ADS-B
Wed 11:14:59 PM 36.3972 -85.8743 68° East 509 586 35,000  Level FlightAware ADS-B
Wed 11:15:30 PM 36.4236 -85.7906 69° East 510 587 35,000  Level FlightAware ADS-B
Wed 11:16:00 PM 36.4496 -85.7085 68° East 510 587 35,000  Level FlightAware ADS-B
Wed 11:16:31 PM 36.4763 -85.6235 69° East 511 588 35,000  Level FlightAware ADS-B
Wed 11:17:03 PM 36.5010 -85.5430 69° East 510 587 35,000  Level FlightAware ADS-B
Wed 11:17:16 PM 36.5141 -85.5028 68° East 511 588 35,000  Level FlightAware ADS-B
Wed 11:17:46 PM 36.5399 -85.4203 69° East 510 587 35,000  Level FlightAware ADS-B
Wed 11:18:16 PM 36.5656 -85.3378 69° East 510 587 35,000  Level FlightAware ADS-B
Wed 11:19:18 PM 36.6186 -85.1665 69° East 511 588 35,000  Level FlightAware ADS-B
Wed 11:19:49 PM 36.6440 -85.0844 69° East 511 588 35,000  Level FlightAware ADS-B
Wed 11:20:19 PM 36.6698 -85.0006 69° East 511 588 35,000  Level FlightAware ADS-B
Wed 11:20:55 PM 36.7004 -84.9007 69° East 511 588 35,000  Level FlightAware ADS-B
Wed 11:21:35 PM 36.7334 -84.7926 69° East 510 587 35,000  Level FlightAware ADS-B
Wed 11:22:09 PM 36.7618 -84.6992 69° East 511 588 35,000  Level FlightAware ADS-B
Wed 11:22:43 PM 36.7901 -84.6063 69° East 511 588 35,000  Level FlightAware ADS-B
Wed 11:23:13 PM 36.8154 -84.5227 69° East 509 586 35,000  Level FlightAware ADS-B
Wed 11:23:43 PM 36.8401 -84.4404 69° East 509 586 35,000  Level FlightAware ADS-B
Wed 11:24:14 PM 36.8660 -84.3546 69° East 506 582 35,000  Level FlightAware ADS-B
Wed 11:24:46 PM 36.8915 -84.2694 69° East 506 582 35,000  Level FlightAware ADS-B
Wed 11:25:48 PM 36.9360 -84.1240 69° East 505 581 35,000  Level FlightAware ADS-B
Wed 11:26:39 PM 36.9720 -84.0060 69° East 505 581 35,000  Level FlightAware ADS-B
Wed 11:27:16 PM 36.9980 -83.9200 69° East 505 581 35,000  Level FlightAware ADS-B
Wed 11:28:12 PM 37.0590 -83.7190 69° East 512 589 35,000  Level FlightAware ADS-B
Wed 11:29:00 PM 37.0970 -83.6070 67° East 512 589 35,000  Level FlightAware ADS-B
Wed 11:29:37 PM 37.1260 -83.5210 67° East 512 589 35,000  Level FlightAware ADS-B
Wed 11:30:17 PM 37.1570 -83.4280 67° East 512 589 35,000  Level FlightAware ADS-B
Wed 11:31:03 PM 37.1930 -83.3210 67° East 512 589 35,000  Level FlightAware ADS-B
Wed 11:31:40 PM 37.2220 -83.2350 67° East 512 589 35,000  Level FlightAware ADS-B
Wed 11:32:29 PM 37.2610 -83.1210 67° East 512 589 35,000  Level FlightAware ADS-B
Wed 11:33:05 PM 37.2890 -83.0370 67° East 512 589 35,000  Level FlightAware ADS-B
Wed 11:33:49 PM 37.3240 -82.9350 67° East 512 589 35,000  Level FlightAware ADS-B
Wed 11:34:29 PM 37.3550 -82.8410 67° East 512 589 35,000  Level FlightAware ADS-B
Wed 11:35:15 PM 37.3910 -82.7340 67° East 512 589 35,000  Level FlightAware ADS-B
Wed 11:35:49 PM 37.4180 -82.6550 67° East 512 589 35,000  Level FlightAware ADS-B
Wed 11:36:40 PM 37.5800 -82.3490 56° Northeast 508 585 35,000  Level FlightAware ADS-B
Wed 11:37:22 PM 37.6210 -82.2360 65° Northeast 508 585 35,000  Level FlightAware ADS-B
Wed 11:38:04 PM 37.6630 -82.1240 65° Northeast 509 586 35,000  Level FlightAware ADS-B
Wed 11:38:46 PM 37.7040 -82.0110 65° Northeast 509 586 35,000  Level FlightAware ADS-B
Wed 11:39:28 PM 37.7460 -81.8970 65° Northeast 510 587 35,000  Level FlightAware ADS-B
Wed 11:40:10 PM 37.7880 -81.7840 65° Northeast 511 588 35,000  Level FlightAware ADS-B
Wed 11:40:47 PM 37.8240 -81.6850 65° Northeast 512 589 35,000  Level FlightAware ADS-B
Wed 11:41:32 PM 37.8690 -81.5600 65° Northeast 514 592 35,000  Level FlightAware ADS-B
Wed 11:42:16 PM 37.9130 -81.4390 65° Northeast 515 593 35,000  Level FlightAware ADS-B
Wed 11:42:58 PM 37.9530 -81.3260 66° East 517 595 35,000  Level FlightAware ADS-B
Wed 11:43:38 PM 37.9940 -81.2140 65° Northeast 519 597 35,000  Level FlightAware ADS-B
Wed 11:44:22 PM 38.0370 -81.0930 66° East 520 598 35,000  Level FlightAware ADS-B
Wed 11:45:02 PM 38.0770 -80.9810 66° East 522 601 35,000  Level FlightAware ADS-B
Wed 11:45:35 PM 38.1090 -80.8910 66° East 522 601 35,000  Level FlightAware ADS-B
Wed 11:46:21 PM 38.1540 -80.7630 66° East 522 601 35,000  Level FlightAware ADS-B
Wed 11:47:02 PM 38.1950 -80.6470 66° East 521 600 35,000  Level FlightAware ADS-B
Wed 11:47:42 PM 38.2340 -80.5340 66° East 521 600 35,000  Level FlightAware ADS-B
Wed 11:48:22 PM 38.2730 -80.4240 66° East 522 601 35,000  Level FlightAware ADS-B
Wed 11:49:08 PM 38.3180 -80.2930 66° East 522 601 35,000  Level FlightAware ADS-B
Wed 11:49:50 PM 38.3580 -80.1770 66° East 523 602 35,000  Level FlightAware ADS-B
Wed 11:51:26 PM 38.4410 -79.9390 66° East 525 604 35,000  Level FlightAware ADS-B
Wed 11:52:08 PM 38.4940 -79.7820 67° East 528 608 35,000  Level FlightAware ADS-B
Wed 11:52:53 PM 38.5370 -79.6550 67° East 529 609 35,000  Level FlightAware ADS-B
Wed 11:53:35 PM 38.5770 -79.5360 67° East 529 609 35,000  Level FlightAware ADS-B
Wed 11:54:17 PM 38.6180 -79.4140 67° East 532 612 35,000  Level FlightAware ADS-B
Wed 11:54:57 PM 38.6580 -79.2980 66° East 532 612 35,000  Level FlightAware ADS-B
Wed 11:55:37 PM 38.6960 -79.1820 67° East 533 613 35,000  Level FlightAware ADS-B
Wed 11:56:23 PM 38.7400 -79.0500 67° East 534 615 35,000  Level FlightAware ADS-B
Wed 11:57:05 PM 38.7810 -78.9270 67° East 536 617 35,000  Level FlightAware ADS-B
Wed 11:57:45 PM 38.8200 -78.8090 67° East 538 619 35,000  Level FlightAware ADS-B
Wed 11:58:41 PM 38.8730 -78.6470 67° East 539 620 35,000  Level FlightAware ADS-B
Wed 11:59:25 PM 38.9160 -78.5150 67° East 538 619 35,000  Level FlightAware ADS-B
Thu 12:00:05 AM 38.9540 -78.3980 67° East 535 616 35,000  Level FlightAware ADS-B
Thu 12:00:47 AM 38.9950 -78.2730 67° East 535 616 35,000  Level FlightAware ADS-B
Thu 12:01:30 AM 39.0350 -78.1490 67° East 537 618 35,000  Level FlightAware ADS-B
Thu 12:01:44 AM 39.0487 -78.1059 68° East 538 619 35,000  Level FlightAware ADS-B
Thu 12:02:19 AM 39.0814 -78.0036 68° East 539 620 35,000  Level FlightAware ADS-B
Thu 12:02:50 AM 39.1108 -77.9119 68° East 538 619 35,000  Level FlightAware ADS-B
Thu 12:03:20 AM 39.1395 -77.8219 68° East 540 621 35,000  Level FlightAware ADS-B
Thu 12:03:50 AM 39.1680 -77.7321 68° East 541 623 35,000  Level FlightAware ADS-B
Thu 12:04:21 AM 39.1964 -77.6422 68° East 541 623 35,000  Level FlightAware ADS-B
Thu 12:04:51 AM 39.2251 -77.5512 68° East 540 621 35,000  Level FlightAware ADS-B
Thu 12:05:18 AM 39.2500 -77.4721 68° East 540 621 35,000  Level FlightAware ADS-B
Thu 12:05:27 AM 39.2601 -77.4450 64° Northeast 535 616 35,000  Level FlightAware ADS-B
Thu 12:05:43 AM 39.2797 -77.4031 59° Northeast 532 612 35,000  Level FlightAware ADS-B
Thu 12:06:13 AM 39.3203 -77.3232 57° Northeast 530 610 35,000  Level FlightAware ADS-B
Thu 12:06:43 AM 39.3606 -77.2426 57° Northeast 529 609 35,000  Level FlightAware ADS-B
Thu 12:07:14 AM 39.4007 -77.1595 58° Northeast 529 609 35,000  Level FlightAware ADS-B
Thu 12:07:44 AM 39.4393 -77.0775 59° Northeast 530 610 35,000  Level FlightAware ADS-B
Thu 12:08:15 AM 39.4777 -76.9945 59° Northeast 528 608 35,000  Level FlightAware ADS-B
Thu 12:08:47 AM 39.5178 -76.9094 59° Northeast 527 606 35,000  Level FlightAware ADS-B
Thu 12:09:17 AM 39.5574 -76.8292 57° Northeast 527 606 35,000  Level FlightAware ADS-B
Thu 12:09:47 AM 39.5971 -76.7489 57° Northeast 528 608 35,000  Level FlightAware ADS-B
Thu 12:10:17 AM 39.6362 -76.6691 58° Northeast 527 606 35,000  Level FlightAware ADS-B
Thu 12:10:47 AM 39.6755 -76.5888 58° Northeast 525 604 35,000  Level FlightAware ADS-B
Thu 12:11:18 AM 39.7151 -76.5074 58° Northeast 525 604 35,000  Level FlightAware ADS-B
Thu 12:11:48 AM 39.7538 -76.4273 58° Northeast 527 606 35,000  Level FlightAware ADS-B
Thu 12:12:18 AM 39.7927 -76.3470 58° Northeast 527 606 35,000  Level FlightAware ADS-B
Thu 12:12:48 AM 39.8318 -76.2661 58° Northeast 528 608 35,000  Level FlightAware ADS-B
Thu 12:13:18 AM 39.8709 -76.1849 58° Northeast 528 608 35,000  Level FlightAware ADS-B
Thu 12:13:49 AM 39.9110 -76.1016 58° Northeast 527 606 35,000  Level FlightAware ADS-B
Thu 12:14:19 AM 39.9501 -76.0204 58° Northeast 528 608 35,000  Level FlightAware ADS-B
Thu 12:14:50 AM 39.9887 -75.9396 58° Northeast 527 606 35,000  Level FlightAware ADS-B
Thu 12:15:20 AM 40.0276 -75.8582 58° Northeast 527 606 35,000  Level FlightAware ADS-B
Thu 12:15:50 AM 40.0667 -75.7761 58° Northeast 528 608 35,000  Level FlightAware ADS-B
Thu 12:16:20 AM 40.1055 -75.6945 58° Northeast 529 609 35,000  Level FlightAware ADS-B
Thu 12:16:50 AM 40.1443 -75.6125 58° Northeast 530 610 35,000  Level FlightAware ADS-B
Thu 12:17:21 AM 40.1838 -75.5291 58° Northeast 531 611 35,000  Level FlightAware ADS-B
Thu 12:17:51 AM 40.2230 -75.4462 58° Northeast 531 611 35,000  Level FlightAware ADS-B
Thu 12:18:22 AM 40.2620 -75.3631 58° Northeast 532 612 35,000  Level FlightAware ADS-B
Thu 12:18:52 AM 40.3008 -75.2803 58° Northeast 532 612 35,000  Level FlightAware ADS-B
Thu 12:19:22 AM 40.3398 -75.1968 58° Northeast 533 613 35,000  Level FlightAware ADS-B
Thu 12:19:52 AM 40.3783 -75.1143 58° Northeast 534 615 35,000  Level FlightAware ADS-B
Thu 12:20:24 AM 40.4191 -75.0266 59° Northeast 534 615 35,000  Level FlightAware ADS-B
Thu 12:20:55 AM 40.4584 -74.9419 59° Northeast 534 615 35,000  Level FlightAware ADS-B
Thu 12:21:25 AM 40.4971 -74.8582 59° Northeast 536 617 35,000  Level FlightAware ADS-B
Thu 12:21:56 AM 40.5374 -74.7708 59° Northeast 537 618 35,000  Level FlightAware ADS-B
Thu 12:22:29 AM 40.5787 -74.6810 59° Northeast 537 618 35,000  Level FlightAware ADS-B
Thu 12:22:59 AM 40.6178 -74.5959 59° Northeast 539 620 35,000  Level FlightAware ADS-B
Thu 12:23:30 AM 40.6570 -74.5100 59° Northeast 540 621 35,000  Level FlightAware ADS-B
Thu 12:24:00 AM 40.6964 -74.4234 59° Northeast 540 621 35,000  Level FlightAware ADS-B
Thu 12:24:36 AM 40.7415 -74.3242 59° Northeast 541 623 35,000  Level FlightAware ADS-B
Thu 12:25:06 AM 40.7805 -74.2383 59° Northeast 540 621 35,000  Level FlightAware ADS-B
Thu 12:25:23 AM 40.8022 -74.1902 59° Northeast 542 624 35,000  Level FlightAware ADS-B
Thu 12:25:36 AM 40.8197 -74.1516 59° Northeast 543 625 35,000  Level FlightAware ADS-B
Thu 12:25:54 AM 40.8423 -74.1014 59° Northeast 545 627 35,000  Level FlightAware ADS-B
Thu 12:26:07 AM 40.8590 -74.0642 59° Northeast 546 628 35,000  Level FlightAware ADS-B
Thu 12:26:25 AM 40.8817 -74.0140 59° Northeast 544 626 35,000  Level FlightAware ADS-B
Thu 12:26:37 AM 40.8975 -73.9786 59° Northeast 544 626 35,000  Level FlightAware ADS-B
Thu 12:27:01 AM 40.9275 -73.9119 59° Northeast 543 625 35,000  Level FlightAware ADS-B
Thu 12:27:09 AM 40.9389 -73.8861 60° Northeast 544 626 35,000  Level FlightAware ADS-B
Thu 12:27:39 AM 40.9770 -73.8010 59° Northeast 543 625 35,000  Level FlightAware ADS-B
Thu 12:28:10 AM 41.0161 -73.7135 59° Northeast 544 626 35,000  Level FlightAware ADS-B
Thu 12:28:41 AM 41.0557 -73.6243 59° Northeast 547 629 35,000  Level FlightAware ADS-B
Thu 12:29:11 AM 41.0943 -73.5372 60° Northeast 548 631 35,000  Level FlightAware ADS-B
Thu 12:29:41 AM 41.1328 -73.4498 60° Northeast 547 629 35,000  Level FlightAware ADS-B
Thu 12:30:12 AM 41.1716 -73.3618 60° Northeast 549 632 35,000  Level FlightAware ADS-B
Thu 12:30:42 AM 41.2099 -73.2747 60° Northeast 549 632 35,000  Level FlightAware ADS-B
Thu 12:31:12 AM 41.2486 -73.1860 60° Northeast 551 634 35,000  Level FlightAware ADS-B
Thu 12:31:44 AM 41.2896 -73.0919 60° Northeast 551 634 35,000  Level FlightAware ADS-B
Thu 12:32:15 AM 41.3291 -73.0012 60° Northeast 551 634 35,000  Level FlightAware ADS-B
Thu 12:33:16 AM 41.4060 -72.8250 60° Northeast 553 636 35,000  Level FlightAware ADS-B
Thu 12:33:42 AM 41.4391 -72.7470 60° Northeast 554 638 35,000  Level FlightAware ADS-B
Thu 12:34:42 AM 41.5160 -72.5690 60° Northeast 556 640 35,000  Level FlightAware ADS-B
Thu 12:35:29 AM 41.5740 -72.4330 60° Northeast 555 639 35,000  Level FlightAware ADS-B
Thu 12:36:20 AM 41.6380 -72.2820 60° Northeast 556 640 35,000  Level FlightAware ADS-B
Thu 12:37:12 AM 41.7030 -72.1270 61° Northeast 558 642 35,000  Level FlightAware ADS-B
Thu 12:37:48 AM 41.7490 -72.0180 60° Northeast 559 643 35,000  Level FlightAware ADS-B
Thu 12:38:38 AM 41.8100 -71.8730 61° Northeast 560 644 35,000  Level FlightAware ADS-B
Thu 12:39:18 AM 41.8590 -71.7550 61° Northeast 560 644 35,000  Level FlightAware ADS-B
Thu 12:40:37 AM 41.9370 -71.5690 61° Northeast 561 646 35,000  Level FlightAware ADS-B
Thu 12:41:44 AM 42.0460 -71.3040 61° Northeast 562 647 35,000  Level FlightAware ADS-B
Thu 12:42:28 AM 42.1020 -71.1660 61° Northeast 562 647 35,000  Level FlightAware ADS-B
Thu 12:43:13 AM 42.1580 -71.0290 61° Northeast 557 641 35,000  Level FlightAware ADS-B
Thu 12:43:53 AM 42.2090 -70.9050 61° Northeast 556 640 35,000  Level FlightAware ADS-B
Thu 12:45:03 AM 42.2940 -70.6920 62° Northeast 557 641 35,000  Level FlightAware ADS-B
Thu 12:45:48 AM 42.3500 -70.5520 62° Northeast 558 642 35,000  Level FlightAware ADS-B
Thu 12:46:30 AM 42.4000 -70.4280 61° Northeast 558 642 35,000  Level FlightAware ADS-B
Thu 12:47:08 AM 42.4480 -70.3070 62° Northeast 559 643 35,000  Level FlightAware ADS-B
Thu 12:47:53 AM 42.5040 -70.1660 62° Northeast 559 643 35,000  Level FlightAware ADS-B
Thu 12:48:33 AM 42.5530 -70.0410 62° Northeast 560 644 35,000  Level FlightAware ADS-B
Thu 12:49:13 AM 42.6020 -69.9170 62° Northeast 560 644 35,000  Level FlightAware ADS-B
Thu 12:49:58 AM 42.6570 -69.7750 62° Northeast 561 646 35,000  Level FlightAware ADS-B
Thu 12:50:43 AM 42.7110 -69.6350 62° Northeast 562 647 35,000  Level FlightAware ADS-B
Thu 12:51:24 AM 42.7600 -69.5080 62° Northeast 566 651 35,000  Level FlightAware ADS-B
Thu 12:52:08 AM 42.8150 -69.3660 62° Northeast 567 652 35,000  Level FlightAware ADS-B
Thu 12:52:48 AM 42.8630 -69.2410 62° Northeast 567 652 35,000  Level FlightAware ADS-B
Thu 12:53:41 AM 42.9240 -69.0810 62° Northeast 568 654 35,000  Level FlightAware ADS-B
Thu 12:54:23 AM 42.9750 -68.9460 63° Northeast 570 656 35,000 289 Level FlightAware ADS-B
Thu 12:55:04 AM 43.0270 -68.8090 63° Northeast 573 659 35,400 286 Climbing FlightAware ADS-B
Thu 12:55:47 AM 43.0690 -68.6990 62° Northeast 573 659 35,400 565 Level FlightAware ADS-B
Thu 12:56:29 AM 43.1300 -68.5320 63° Northeast 577 664 36,200 571 Climbing FlightAware ADS-B
Thu 12:57:11 AM 43.1700 -68.4240 63° Northeast 577 664 36,200  Level FlightAware ADS-B
Thu 12:57:59 AM 43.2200 -68.2910 63° Northeast 577 664 36,200  Level FlightAware ADS-B
Thu 12:58:35 AM 43.2570 -68.1910 63° Northeast 577 664 36,200 600 Level FlightAware ADS-B
Thu 12:59:19 AM 43.3340 -67.9790 63° Northeast 578 665 37,000 571 Climbing FlightAware ADS-B
Thu 12:59:59 AM 43.3830 -67.8440 63° Northeast 578 665 37,000  Level FlightAware ADS-B
Thu 01:01:01 AM 43.4520 -67.6560 63° Northeast 578 665 37,000  Level FlightAware ADS-B
Thu 01:01:40 AM 43.5020 -67.5150 64° Northeast 580 667 37,000  Level FlightAware ADS-B
Thu 01:02:19 AM 43.5490 -67.3830 64° Northeast 580 667 37,000  Level FlightAware ADS-B
Thu 01:03:04 AM 43.6020 -67.2350 64° Northeast 581 669 37,000  Level FlightAware ADS-B
Thu 01:03:44 AM 43.6500 -67.1010 64° Northeast 577 664 37,000  Level FlightAware ADS-B
Thu 01:04:24 AM 43.6960 -66.9700 64° Northeast 578 665 37,000  Level FlightAware ADS-B
Thu 01:05:05 AM 43.7440 -66.8340 64° Northeast 578 665 37,000  Level FlightAware ADS-B
Thu 01:05:49 AM 43.7960 -66.6850 64° Northeast 581 669 37,000  Level FlightAware ADS-B
Thu 01:06:32 AM 43.8430 -66.5490 64° Northeast 582 670 37,000  Level FlightAware ADS-B
Thu 01:07:15 AM 43.8970 -66.3930 64° Northeast 583 671 37,000  Level FlightAware ADS-B
Thu 01:07:55 AM 43.9430 -66.2600 64° Northeast 584 672 37,000  Level FlightAware ADS-B
Thu 01:08:40 AM 43.9960 -66.1040 65° Northeast 586 674 37,000  Level FlightAware ADS-B
Thu 01:09:20 AM 44.0420 -65.9700 64° Northeast 585 673 37,000  Level FlightAware ADS-B
Thu 01:10:01 AM 44.0900 -65.8270 65° Northeast 587 676 37,000  Level FlightAware ADS-B
Thu 01:10:40 AM 44.1330 -65.6990 65° Northeast 587 676 37,000  Level FlightAware ADS-B
Thu 01:11:35 AM 44.1720 -65.5830 65° Northeast 592 681 37,000  Level FlightAware ADS-B
Thu 01:12:19 AM 44.2500 -65.3490 65° Northeast 593 682 37,000  Level FlightAware ADS-B
Thu 01:12:58 AM 44.2940 -65.2150 65° Northeast 595 685 37,000  Level FlightAware ADS-B
Thu 01:13:39 AM 44.3410 -65.0710 65° Northeast 596 686 37,000  Level FlightAware ADS-B
Thu 01:14:25 AM 44.3940 -64.9100 65° Northeast 595 685 37,000  Level FlightAware ADS-B
Thu 01:15:06 AM 44.4390 -64.7720 65° Northeast 597 687 37,000  Level FlightAware ADS-B
Thu 01:15:41 AM 44.4800 -64.6440 66° East 597 687 37,000  Level FlightAware ADS-B
Thu 01:16:25 AM 44.5290 -64.4920 66° East 597 687 37,000  Level FlightAware ADS-B
Thu 01:17:09 AM 44.5800 -64.3330 66° East 596 686 37,000  Level FlightAware ADS-B
Thu 01:17:52 AM 44.6270 -64.1840 66° East 597 687 37,000  Level FlightAware ADS-B
Thu 01:18:30 AM 44.6680 -64.0550 66° East 598 688 37,000  Level FlightAware ADS-B
Thu 01:19:11 AM 44.7150 -63.9050 66° East 599 689 37,000  Level FlightAware ADS-B
Thu 01:20:09 AM 44.7750 -63.7140 66° East 598 688 37,000  Level FlightAware ADS-B
Thu 01:21:05 AM 44.8010 -63.6320 66° East 598 688 37,000  Level FlightAware ADS-B
Thu 01:21:45 AM 44.8830 -63.3650 66° East 600 690 37,000  Level FlightAware ADS-B
Thu 01:22:32 AM 44.9280 -63.2150 67° East 600 690 37,000  Level FlightAware ADS-B
Thu 01:23:16 AM 44.9750 -63.0620 66° East 601 692 37,000  Level FlightAware ADS-B
Thu 01:23:52 AM 44.9730 -63.0680 245° Southwest 601 692 37,000  Level FlightAware ADS-B
Thu 01:24:41 AM 45.0190 -62.9170 67° East 601 692 37,000  Level FlightAware ADS-B
Thu 01:25:21 AM 45.0550 -62.7940 67° East 601 692 37,000  Level FlightAware ADS-B
Thu 01:26:00 AM 45.0910 -62.6740 67° East 601 692 37,000  Level FlightAware ADS-B
Thu 01:26:38 AM 45.1270 -62.5570 66° East 601 692 37,000  Level FlightAware ADS-B
Thu 01:27:28 AM 45.1730 -62.4030 67° East 601 692 37,000  Level FlightAware ADS-B
Thu 01:28:04 AM 45.2060 -62.2910 67° East 601 692 37,000  Level FlightAware ADS-B
Thu 01:28:52 AM 45.2500 -62.1430 67° East 601 692 37,000  Level FlightAware ADS-B
Thu 01:29:30 AM 45.2850 -62.0260 67° East 601 692 37,000  Level FlightAware ADS-B
Thu 01:30:09 AM 45.3210 -61.9050 67° East 601 692 37,000  Level FlightAware ADS-B
Thu 01:30:55 AM 45.4760 -61.3560 68° East 606 697 37,000  Level FlightAware ADS-B
Thu 01:31:37 AM 45.5200 -61.2000 68° East 607 699 37,000  Level FlightAware ADS-B
Thu 01:32:21 AM 45.5650 -61.0390 68° East 609 701 37,000  Level FlightAware ADS-B
Thu 01:33:03 AM 45.6100 -60.8780 68° East 610 702 37,000  Level FlightAware ADS-B
Thu 01:33:41 AM 45.6500 -60.7350 68° East 611 703 37,000  Level FlightAware ADS-B
Thu 01:34:27 AM 45.6980 -60.5610 68° East 610 702 37,000  Level FlightAware ADS-B
Thu 01:35:11 AM 45.7420 -60.4000 69° East 610 702 37,000  Level FlightAware ADS-B
Thu 01:36:07 AM 45.7990 -60.1890 69° East 612 704 37,000  Level FlightAware ADS-B
Thu 01:37:24 AM 45.8600 -59.9610 69° East 613 705 37,000  Level FlightAware ADS-B
Thu 01:38:14 AM 45.9110 -59.7700 69° East 617 710 37,000  Level FlightAware ADS-B
Thu 01:38:55 AM 45.9700 -59.5470 69° East 619 712 37,000  Level FlightAware ADS-B
Thu 01:43:22 AM 46.1840 -58.7200 69° East 623 717 37,000  Level FlightAware ADS-B
Thu 01:44:03 AM 46.1610 -58.8080 249° West 624 718 37,000  Level FlightAware ADS-B
Thu 01:44:43 AM 46.2010 -58.6500 70° East 626 720 37,000  Level FlightAware ADS-B
Thu 01:45:36 AM 46.2190 -58.5800 70° East 625 719 37,000  Level FlightAware ADS-B
Thu 01:47:11 AM 46.2850 -58.3150 70° East 625 719 37,000  Level FlightAware ADS-B
Thu 01:48:26 AM 46.5230 -57.3420 70° East 627 722 37,000  Level FlightAware ADS-B
Thu 01:49:01 AM 46.5590 -57.1840 72° East 629 724 37,000  Level FlightAware ADS-B
Thu 01:49:46 AM 46.6010 -57.0070 71° East 629 724 37,000 74 Level FlightAware ADS-B
Thu 01:50:22 AM 46.6290 -56.8900 71° East 630 725 37,100 304 Climbing FlightAware ADS-B
Thu 01:51:05 AM 46.6510 -56.7950 71° East 628 723 37,400 406 Climbing FlightAware ADS-B
Thu 01:52:35 AM 46.7110 -56.5350 71° East 623 717 38,000 265 Climbing FlightAware ADS-B
Thu 01:53:21 AM 46.8010 -56.1420 71° East 618 711 38,000  Level FlightAware ADS-B
Thu 01:54:01 AM 46.8370 -55.9840 72° East 617 710 38,000  Level FlightAware ADS-B
Thu 01:54:42 AM 46.8710 -55.8330 72° East 617 710 38,000  Level FlightAware ADS-B
Thu 01:55:44 AM 46.9260 -55.5860 72° East 617 710 38,000  Level FlightAware ADS-B
Thu 01:56:31 AM 46.9690 -55.3880 72° East 618 711 38,000  Level FlightAware ADS-B
Thu 01:57:11 AM 47.0040 -55.2280 72° East 619 712 38,000  Level FlightAware ADS-B
Thu 01:57:46 AM 47.0330 -55.0940 72° East 620 713 38,000  Level FlightAware ADS-B
Thu 01:58:35 AM 47.0760 -54.8940 72° East 620 713 38,000  Level FlightAware ADS-B
Thu 01:59:15 AM 47.1100 -54.7360 72° East 620 713 38,000  Level FlightAware ADS-B
Thu 01:59:59 AM 47.1490 -54.5520 73° East 620 713 38,000  Level FlightAware ADS-B
Thu 02:01:11 AM 47.2090 -54.2650 73° East 619 712 38,000  Level FlightAware ADS-B
Thu 02:01:51 AM 47.2420 -54.1050 73° East 618 711 38,000  Level FlightAware ADS-B
Thu 02:02:29 AM 47.2730 -53.9520 73° East 616 709 38,000  Level FlightAware ADS-B
Thu 02:03:17 AM 47.3120 -53.7600 73° East 615 708 38,000  Level FlightAware ADS-B
Thu 02:03:57 AM 47.3440 -53.6010 73° East 616 709 38,000  Level FlightAware ADS-B
Thu 02:04:39 AM 47.3780 -53.4310 73° East 615 708 38,000  Level FlightAware ADS-B
Thu 02:05:23 AM 47.4120 -53.2570 74° East 613 705 38,000  Level FlightAware ADS-B
Thu 02:06:05 AM 47.4450 -53.0880 74° East 612 704 38,000  Level FlightAware ADS-B
Thu 02:06:45 AM 47.4770 -52.9240 74° East 612 704 38,000  Level FlightAware ADS-B
Thu 02:07:27 AM 47.5090 -52.7570 74° East 613 705 38,000  Level FlightAware ADS-B
Thu 02:08:09 AM 47.5420 -52.5890 74° East 612 704 38,000  Level FlightAware ADS-B
Thu 02:08:51 AM 47.5730 -52.4210 75° East 610 702 38,000  Level FlightAware ADS-B
Thu 02:09:33 AM 47.6050 -52.2500 74° East 607 699 38,000  Level FlightAware ADS-B
Thu 02:10:13 AM 47.6350 -52.0890 74° East 605 696 38,000  Level FlightAware ADS-B
Thu 02:11:20 AM 47.6790 -51.8580 74° East 604 695 38,000  Level FlightAware ADS-B
Thu 02:12:07 AM 47.7180 -51.6350 75° East 603 694 38,000  Level FlightAware ADS-B
Thu 02:12:51 AM 47.7490 -51.4640 75° East 602 693 38,000  Level FlightAware ADS-B
Thu 02:13:48 AM 47.7870 -51.2490 75° East 600 690 38,000  Level FlightAware ADS-B
Thu 02:14:24 AM 47.8090 -51.1270 75° East 600 690 38,000  Level FlightAware ADS-B
Thu 02:15:04 AM 47.8340 -50.9910 75° East 600 690 38,000  Level FlightAware ADS-B
Thu 02:15:49 AM 47.8610 -50.8380 75° East 600 690 38,000  Level FlightAware ADS-B
Thu 02:16:35 AM 47.8890 -50.6820 75° East 600 690 38,000  Level FlightAware ADS-B
Thu 02:17:12 AM 47.9120 -50.5560 75° East 600 690 38,000  Level FlightAware ADS-B
Thu 02:18:14 AM 47.9500 -50.3450 75° East 600 690 38,000  Level FlightAware ADS-B
Thu 02:18:48 AM 47.9700 -50.2300 75° East 600 690 38,000  Level FlightAware ADS-B
Thu 02:19:35 AM 47.9990 -50.0700 75° East 600 690 38,000  Level FlightAware ADS-B
Thu 02:20:11 AM 48.0210 -49.9470 75° East 600 690 38,000  Level FlightAware ADS-B
Thu 02:20:53 AM 48.0470 -49.8040 75° East 600 690 38,000  Level FlightAware ADS-B
Thu 02:21:39 AM 48.0750 -49.6470 75° East 600 690 38,000  Level FlightAware ADS-B
Thu 02:22:16 AM 48.0970 -49.5210 75° East 600 690 38,000  Level FlightAware ADS-B
Thu 02:23:02 AM 48.1250 -49.3640 75° East 600 690 38,000  Level FlightAware ADS-B
Thu 02:23:53 AM 48.2500 -48.8333 75° East 580 667 38,000  Level Gander Center
Thu 02:24:23 AM 48.2667 -48.7167 78° East 580 667 38,000  Level Gander Center
Thu 02:24:53 AM 48.2833 -48.5833 79° East 580 667 38,000  Level Gander Center
Thu 02:25:53 AM 48.3500 -48.3667 65° Northeast 580 667 38,000  Level Gander Center
Thu 02:26:23 AM 48.3833 -48.2500 67° East 580 667 38,000  Level Gander Center
Thu 02:27:23 AM 48.4167 -48.0500 76° East 580 667 38,000  Level Gander Center
Thu 02:28:23 AM 48.4833 -47.8000 68° East 580 667 38,000  Level Gander Center
Thu 02:29:23 AM 48.5333 -47.5833 71° East 580 667 38,000  Level Gander Center
Thu 02:30:23 AM 48.5833 -47.3333 73° East 580 667 38,000  Level Gander Center
Thu 02:31:23 AM 48.6333 -47.1000 69° East 580 667 38,000  Level Gander Center
Thu 02:31:39 AM 48.0000 -50.0000 69° East 573 659 38,000  Level ETMS Enhanced Traffic Management System
Thu 02:32:23 AM 48.6833 -46.8667 72° East 580 667 38,000  Level Gander Center
Thu 02:34:00 AM 48.7623 -46.5292 70° East  Level FlightAware Approximate
Thu 02:41:00 AM 49.0930 -45.0559 71° East  Level FlightAware Approximate
Thu 02:42:00 AM 49.1387 -44.8438 72° East  Level FlightAware Approximate
Thu 02:43:00 AM 49.1840 -44.6314 72° East  Level FlightAware Approximate
Thu 02:44:00 AM 49.2289 -44.4186 72° East  Level FlightAware Approximate
Thu 02:45:00 AM 49.2734 -44.2053 72° East  Level FlightAware Approximate
Thu 02:46:00 AM 49.3176 -43.9917 72° East  Level FlightAware Approximate
Thu 02:47:00 AM 49.3600 -43.7769 75° East  Level FlightAware Approximate
Thu 02:48:00 AM 49.3980 -43.5602 75° East  Level FlightAware Approximate
Thu 02:49:00 AM 49.4357 -43.3432 75° East  Level FlightAware Approximate
Thu 02:50:00 AM 49.4730 -43.1258 75° East  Level FlightAware Approximate
Thu 02:51:00 AM 49.5098 -42.9081 75° East  Level FlightAware Approximate
Thu 02:52:00 AM 49.5462 -42.6901 75° East  Level FlightAware Approximate
Thu 02:53:00 AM 49.5837 -42.4724 74° East  Level FlightAware Approximate
Thu 02:54:00 AM 49.6227 -42.2551 74° East  Level FlightAware Approximate
Thu 02:55:00 AM 49.6613 -42.0374 75° East  Level FlightAware Approximate
Thu 02:56:00 AM 49.6995 -41.8195 75° East  Level FlightAware Approximate
Thu 02:57:00 AM 49.7373 -41.6011 75° East  Level FlightAware Approximate
Thu 02:58:00 AM 49.7746 -41.3825 75° East  Level FlightAware Approximate
Thu 02:59:00 AM 49.8116 -41.1634 75° East  Level FlightAware Approximate
Thu 03:00:00 AM 49.8481 -40.9441 75° East  Level FlightAware Approximate
Thu 03:01:00 AM 49.8842 -40.7244 76° East  Level FlightAware Approximate
Thu 03:02:00 AM 49.9199 -40.5045 76° East  Level FlightAware Approximate
Thu 03:03:00 AM 49.9552 -40.2841 76° East  Level FlightAware Approximate
Thu 03:04:00 AM 49.9901 -40.0635 76° East  Level FlightAware Approximate
Thu 03:05:00 AM 50.0069 -39.8384 86° East  Level FlightAware Approximate
Thu 03:06:00 AM 50.0161 -39.6114 86° East  Level FlightAware Approximate
Thu 03:07:00 AM 50.0249 -39.3844 86° East  Level FlightAware Approximate
Thu 03:08:00 AM 50.0332 -39.1573 87° East  Level FlightAware Approximate
Thu 03:09:00 AM 50.0411 -38.9302 87° East  Level FlightAware Approximate
Thu 03:10:00 AM 50.0486 -38.7029 87° East  Level FlightAware Approximate
Thu 03:11:00 AM 50.0556 -38.4756 87° East  Level FlightAware Approximate
Thu 03:12:00 AM 50.0622 -38.2482 87° East  Level FlightAware Approximate
Thu 03:13:00 AM 50.0683 -38.0208 88° East  Level FlightAware Approximate
Thu 03:14:00 AM 50.0740 -37.7933 88° East  Level FlightAware Approximate
Thu 03:15:00 AM 50.0793 -37.5657 88° East  Level FlightAware Approximate
Thu 03:15:00 AM 50.0000 -40.0000 86° East 563 648 38,000  Level ETMS Enhanced Traffic Management System
Thu 03:16:00 AM 50.0840 -37.3382 88° East  Level FlightAware Approximate
Thu 03:17:00 AM 50.0884 -37.1105 88° East  Level FlightAware Approximate
Thu 03:18:00 AM 50.0923 -36.8828 88° East  Level FlightAware Approximate
Thu 03:19:00 AM 50.0958 -36.6551 89° East  Level FlightAware Approximate
Thu 03:20:00 AM 50.0988 -36.4274 89° East  Level FlightAware Approximate
Thu 03:21:00 AM 50.1069 -35.3664 90° East 563 648 38,000  Level FlightAware Transoceanic
Thu 03:22:00 AM 50.1075 -35.1221 90° East 563 648 38,000  Level FlightAware Transoceanic
Thu 03:23:00 AM 50.1075 -34.8779 90° East 563 648 38,000  Level FlightAware Transoceanic
Thu 03:24:00 AM 50.1069 -34.6336 90° East 563 648 38,000  Level FlightAware Transoceanic
Thu 03:25:00 AM 50.1059 -34.3894 90° East 563 648 38,000  Level FlightAware Transoceanic
Thu 03:26:00 AM 50.1044 -34.1451 91° East 563 648 38,000  Level FlightAware Transoceanic
Thu 03:27:00 AM 50.1023 -33.9009 91° East 563 648 38,000  Level FlightAware Transoceanic
Thu 03:28:00 AM 50.0998 -33.6567 91° East 563 648 38,000  Level FlightAware Transoceanic
Thu 03:29:00 AM 50.0967 -33.4125 91° East 563 648 38,000  Level FlightAware Transoceanic
Thu 03:30:00 AM 50.0931 -33.1684 91° East 563 648 38,000  Level FlightAware Transoceanic
Thu 03:31:00 AM 50.0890 -32.9243 92° East 563 648 38,000  Level FlightAware Transoceanic
Thu 03:32:00 AM 50.0844 -32.6802 92° East 563 648 38,000  Level FlightAware Transoceanic
Thu 03:33:00 AM 50.0793 -32.4362 92° East 563 648 38,000  Level FlightAware Transoceanic
Thu 03:34:00 AM 50.0737 -32.1922 92° East 563 648 38,000  Level FlightAware Transoceanic
Thu 03:35:00 AM 50.0675 -31.9484 92° East 563 648 38,000  Level FlightAware Transoceanic
Thu 03:36:00 AM 50.0609 -31.7045 93° East 563 648 38,000  Level FlightAware Transoceanic
Thu 03:37:00 AM 50.0537 -31.4608 93° East 563 648 38,000  Level FlightAware Transoceanic
Thu 03:38:00 AM 50.0460 -31.2171 93° East 563 648 38,000  Level FlightAware Transoceanic
Thu 03:39:00 AM 50.0378 -30.9735 93° East 563 648 38,000  Level FlightAware Transoceanic
Thu 03:40:00 AM 50.0291 -30.7300 93° East 563 648 38,000  Level FlightAware Transoceanic
Thu 03:41:00 AM 50.0199 -30.4866 93° East 563 648 38,000  Level FlightAware Transoceanic
Thu 03:42:00 AM 50.0102 -30.2432 94° East 563 648 38,000  Level FlightAware Transoceanic
Thu 03:43:00 AM 50.0007 -30.0164 94° East  Level FlightAware Approximate
Thu 03:44:00 AM 49.9908 -29.7896 94° East  Level FlightAware Approximate
Thu 03:44:00 AM 50.0000 -30.0000 86° East 550 633 38,000  Level ETMS Enhanced Traffic Management System
Thu 03:45:00 AM 50.0082 -29.8059 86° East  Level FlightAware Approximate
Thu 03:46:00 AM 50.0174 -29.5789 86° East  Level FlightAware Approximate
Thu 03:47:00 AM 50.0261 -29.3519 86° East  Level FlightAware Approximate
Thu 03:48:00 AM 50.0344 -29.1248 87° East  Level FlightAware Approximate
Thu 03:49:00 AM 50.0422 -28.8976 87° East  Level FlightAware Approximate
Thu 03:50:00 AM 50.0496 -28.6703 87° East  Level FlightAware Approximate
Thu 03:51:00 AM 50.0663 -28.0981 88° East 550 633 38,000  Level FlightAware Transoceanic
Thu 03:52:00 AM 50.0724 -27.8600 88° East 550 633 38,000  Level FlightAware Transoceanic
Thu 03:53:00 AM 50.0780 -27.6219 88° East 550 633 38,000  Level FlightAware Transoceanic
Thu 03:54:00 AM 50.0831 -27.3837 88° East 550 633 38,000  Level FlightAware Transoceanic
Thu 03:55:00 AM 50.0877 -27.1455 88° East 550 633 38,000  Level FlightAware Transoceanic
Thu 03:56:00 AM 50.0919 -26.9072 89° East 550 633 38,000  Level FlightAware Transoceanic
Thu 03:57:00 AM 50.0956 -26.6689 89° East 550 633 38,000  Level FlightAware Transoceanic
Thu 03:58:00 AM 50.0987 -26.4305 89° East 550 633 38,000  Level FlightAware Transoceanic
Thu 03:59:00 AM 50.1014 -26.1922 89° East 550 633 38,000  Level FlightAware Transoceanic
Thu 04:00:00 AM 50.1036 -25.9538 89° East 550 633 38,000  Level FlightAware Transoceanic
Thu 04:01:00 AM 50.1053 -25.7153 89° East 550 633 38,000  Level FlightAware Transoceanic
Thu 04:02:00 AM 50.1065 -25.4769 90° East 550 633 38,000  Level FlightAware Transoceanic
Thu 04:03:00 AM 50.1073 -25.2384 90° East 550 633 38,000  Level FlightAware Transoceanic
Thu 04:04:00 AM 50.1075 -25.0000 90° East 550 633 38,000  Level FlightAware Transoceanic
Thu 04:05:00 AM 50.1073 -24.7616 90° East 550 633 38,000  Level FlightAware Transoceanic
Thu 04:06:00 AM 50.1065 -24.5231 90° East 550 633 38,000  Level FlightAware Transoceanic
Thu 04:07:00 AM 50.1053 -24.2847 91° East 550 633 38,000  Level FlightAware Transoceanic
Thu 04:08:00 AM 50.1036 -24.0462 91° East 550 633 38,000  Level FlightAware Transoceanic
Thu 04:09:00 AM 50.1014 -23.8078 91° East 550 633 38,000  Level FlightAware Transoceanic
Thu 04:10:00 AM 50.0987 -23.5695 91° East 550 633 38,000  Level FlightAware Transoceanic
Thu 04:11:00 AM 50.0956 -23.3311 91° East 550 633 38,000  Level FlightAware Transoceanic
Thu 04:12:00 AM 50.0919 -23.0928 91° East 550 633 38,000  Level FlightAware Transoceanic
Thu 04:13:00 AM 50.0877 -22.8545 92° East 550 633 38,000  Level FlightAware Transoceanic
Thu 04:14:00 AM 50.0831 -22.6163 92° East 550 633 38,000  Level FlightAware Transoceanic
Thu 04:15:00 AM 50.0780 -22.3781 92° East 550 633 38,000  Level FlightAware Transoceanic
Thu 04:16:00 AM 50.0724 -22.1400 92° East 550 633 38,000  Level FlightAware Transoceanic
Thu 04:17:00 AM 50.0663 -21.9019 92° East 550 633 38,000  Level FlightAware Transoceanic
Thu 04:18:00 AM 50.0597 -21.6639 93° East 550 633 38,000  Level FlightAware Transoceanic
Thu 04:19:00 AM 50.0526 -21.4260 93° East 550 633 38,000  Level FlightAware Transoceanic
Thu 04:20:00 AM 50.0451 -21.1881 93° East 550 633 38,000  Level FlightAware Transoceanic
Thu 04:21:00 AM 50.0370 -20.9503 93° East 550 633 38,000  Level FlightAware Transoceanic
Thu 04:22:00 AM 50.0285 -20.7126 93° East 550 633 38,000  Level FlightAware Transoceanic
Thu 04:23:00 AM 50.0195 -20.4750 93° East 550 633 38,000  Level FlightAware Transoceanic
Thu 04:24:00 AM 50.0100 -20.2374 94° East 550 633 38,000  Level FlightAware Transoceanic
Thu 04:25:00 AM 50.0005 -20.0106 94° East  Level FlightAware Approximate
Thu 04:26:00 AM 49.9906 -19.7838 94° East  Level FlightAware Approximate
Thu 04:27:00 AM 50.0383 -19.8025 73° East  Level FlightAware Approximate
Thu 04:28:00 AM 50.0801 -19.5844 73° East  Level FlightAware Approximate
Thu 04:29:00 AM 50.1215 -19.3660 73° East  Level FlightAware Approximate
Thu 04:30:00 AM 50.1624 -19.1471 74° East  Level FlightAware Approximate
Thu 04:31:00 AM 50.2030 -18.9279 74° East  Level FlightAware Approximate
Thu 04:32:00 AM 50.2432 -18.7083 74° East  Level FlightAware Approximate
Thu 04:33:00 AM 50.2829 -18.4883 74° East  Level FlightAware Approximate
Thu 04:34:00 AM 50.3223 -18.2680 74° East  Level FlightAware Approximate
Thu 04:35:00 AM 50.3612 -18.0473 74° East  Level FlightAware Approximate
Thu 04:36:00 AM 50.3997 -17.8263 75° East  Level FlightAware Approximate
Thu 04:37:00 AM 50.4377 -17.6049 75° East  Level FlightAware Approximate
Thu 04:38:00 AM 50.4754 -17.3831 75° East  Level FlightAware Approximate
Thu 04:39:00 AM 50.5126 -17.1610 75° East  Level FlightAware Approximate
Thu 04:40:00 AM 50.5494 -16.9385 75° East  Level FlightAware Approximate
Thu 04:41:00 AM 50.5858 -16.7157 75° East  Level FlightAware Approximate
Thu 04:42:00 AM 50.6218 -16.4925 76° East  Level FlightAware Approximate
Thu 04:43:00 AM 50.6573 -16.2690 76° East  Level FlightAware Approximate
Thu 04:44:00 AM 50.6924 -16.0452 76° East  Level FlightAware Approximate
Thu 04:45:00 AM 50.7271 -15.8210 76° East  Level FlightAware Approximate
Thu 04:46:00 AM 50.7613 -15.5966 76° East  Level FlightAware Approximate
Thu 04:47:00 AM 50.7951 -15.3717 77° East  Level FlightAware Approximate
Thu 04:48:00 AM 50.8285 -15.1466 77° East  Level FlightAware Approximate
Thu 04:49:00 AM 50.8614 -14.9211 77° East  Level FlightAware Approximate
Thu 04:50:00 AM 50.8936 -14.6952 77° East  Level FlightAware Approximate
Thu 04:51:00 AM 50.9254 -14.4690 77° East  Level FlightAware Approximate
Thu 04:52:00 AM 50.9568 -14.2425 78° East  Level FlightAware Approximate
Thu 04:53:00 AM 50.9877 -14.0157 78° East  Level FlightAware Approximate
Thu 04:54:00 AM 51.0182 -13.7886 78° East  Level FlightAware Approximate
Thu 04:55:00 AM 51.0494 -13.5617 78° East  Level FlightAware Approximate
Thu 04:56:00 AM 51.0802 -13.3343 78° East  Level FlightAware Approximate
Thu 04:57:00 AM 51.1105 -13.1067 78° East  Level FlightAware Approximate
Thu 04:58:00 AM 51.1404 -12.8788 78° East  Level FlightAware Approximate
Thu 04:59:00 AM 51.1699 -12.6506 78° East  Level FlightAware Approximate
Thu 05:00:00 AM 51.1988 -12.4221 78° East  Level FlightAware Approximate
Thu 05:01:00 AM 51.2274 -12.1934 79° East  Level FlightAware Approximate
Thu 05:02:00 AM 51.2555 -11.9643 79° East  Level FlightAware Approximate
Thu 05:03:00 AM 51.2831 -11.7350 79° East  Level FlightAware Approximate
Thu 05:04:00 AM 51.3104 -11.5054 79° East  Level FlightAware Approximate
Thu 05:05:00 AM 51.3371 -11.2755 79° East  Level FlightAware Approximate
Thu 05:05:34 AM 50.8190 -11.5040 80° East 501 577 38,000  Level FlightAware ADS-B
Thu 05:06:00 AM 51.3634 -11.0454 80° East  Level FlightAware Approximate
Thu 05:06:14 AM 50.8500 -11.3640 71° East 502 578 38,000  Level FlightAware ADS-B
Thu 05:07:02 AM 50.8860 -11.1990 71° East 503 579 38,000  Level FlightAware ADS-B
Thu 05:07:46 AM 50.9200 -11.0440 71° East 505 581 38,000  Level FlightAware ADS-B
Thu 05:08:24 AM 50.9440 -10.9300 71° East 505 581 38,000  Level FlightAware ADS-B
Thu 05:09:12 AM 50.9750 -10.7870 71° East 505 581 38,000  Level FlightAware ADS-B
Thu 05:09:48 AM 50.9980 -10.6790 71° East 505 581 38,000  Level FlightAware ADS-B
Thu 05:11:08 AM 51.0500 -10.4410 71° East 505 581 38,000  Level FlightAware ADS-B
Thu 05:11:56 AM 51.0900 -10.2380 73° East 516 594 38,000  Level FlightAware ADS-B
Thu 05:12:39 AM 51.1400 -9.9960 72° East 511 588 38,000  Level FlightAware ADS-B
Thu 05:13:21 AM 51.1680 -9.8560 72° East 504 580 38,000  Level FlightAware ADS-B
Thu 05:14:01 AM 51.1980 -9.7090 72° East 504 580 38,000  Level FlightAware ADS-B
Thu 05:14:41 AM 51.2260 -9.5670 72° East 504 580 38,000  Level FlightAware ADS-B
Thu 05:15:25 AM 51.2570 -9.4140 72° East 506 582 38,000  Level FlightAware ADS-B
Thu 05:16:05 AM 51.2870 -9.2640 72° East 510 587 38,000  Level FlightAware ADS-B
Thu 05:17:01 AM 51.3260 -9.0660 72° East 507 583 38,000  Level FlightAware ADS-B
Thu 05:17:41 AM 51.3530 -8.9270 73° East 509 586 38,000  Level FlightAware ADS-B
Thu 05:18:26 AM 51.3858 -8.7526 73° East 482 555 38,000  Level FlightAware UK
Thu 05:18:26 AM 51.3850 -8.7600 73° East 511 588 38,000  Level FlightAware ADS-B
Thu 05:18:56 AM 51.4067 -8.6443 73° East 482 555 38,000  Level FlightAware UK
Thu 05:19:09 AM 51.4150 -8.6040 73° East 511 588 38,000  Level FlightAware ADS-B
Thu 05:19:53 AM 51.4450 -8.4420 73° East 510 587 38,000  Level FlightAware ADS-B
Thu 05:20:26 AM 51.4688 -8.3183 73° East 480 552 38,000  Level FlightAware UK
Thu 05:20:56 AM 51.4894 -8.2091 73° East 480 552 38,000  Level FlightAware UK
Thu 05:21:05 AM 51.4930 -8.1860 73° East 510 587 38,000  Level FlightAware ADS-B
Thu 05:21:43 AM 51.5190 -8.0460 73° East 510 587 38,000  Level FlightAware ADS-B
Thu 05:22:26 AM 51.5493 -7.8841 73° East 484 557 38,000  Level FlightAware UK
Thu 05:22:29 AM 51.5500 -7.8770 73° East 505 581 38,000  Level FlightAware ADS-B
Thu 05:23:09 AM 51.5760 -7.7380 73° East 501 577 38,000  Level FlightAware ADS-B
Thu 05:23:53 AM 51.6040 -7.5800 74° East 498 573 38,000  Level FlightAware ADS-B
Thu 05:24:26 AM 51.6272 -7.4566 74° East 490 564 38,000  Level FlightAware UK
Thu 05:24:31 AM 51.6280 -7.4500 74° East 492 566 38,000  Level FlightAware ADS-B
Thu 05:25:26 AM 51.6642 -7.2465 74° East 472 543 38,000  Level FlightAware UK
Thu 05:25:29 AM 51.6610 -7.2600 74° East 488 562 38,000 -689 Level FlightAware ADS-B
Thu 05:26:27 AM 51.7002 -7.0399 74° East 458 527 37,300  Descending FlightAware UK
Thu 05:26:30 AM 51.6710 -7.2080 74° East 492 566 38,000 -1,889 Climbing FlightAware ADS-B
Thu 05:27:21 AM 51.7310 -6.8620 74° East 458 527 35,600 -2,414 Descending FlightAware ADS-B
Thu 05:27:57 AM 51.7516 -6.7431 74° East 444 511 34,500 -1,714 Descending FlightAware UK
Thu 05:28:03 AM 51.7550 -6.7250 74° East 446 513 34,400 -1,500 Descending FlightAware ADS-B
Thu 05:28:37 AM 51.7730 -6.6190 75° East 435 501 33,500 -894 Descending FlightAware ADS-B
Thu 05:29:37 AM 51.7780 -6.4340 87° East 413 475 33,000 -294 Descending FlightAware ADS-B
Thu 05:30:19 AM 51.7720 -6.2990 94° East 438 504 33,000  Level FlightAware ADS-B
Thu 05:31:01 AM 51.7670 -6.1590 93° East 464 534 33,000  Level FlightAware ADS-B
Thu 05:31:45 AM 51.7600 -6.0030 94° East 481 554 33,000  Level FlightAware ADS-B
Thu 05:32:25 AM 51.7540 -5.8600 94° East 482 555 33,000  Level FlightAware ADS-B
Thu 05:33:08 AM 51.7470 -5.7090 94° East 483 556 33,000  Level FlightAware ADS-B
Thu 05:33:51 AM 51.7400 -5.5510 94° East 484 557 33,000  Level FlightAware ADS-B
Thu 05:34:33 AM 51.7324 -5.3989 94° East 484 557 33,000  Level FlightAware UK
Thu 05:34:33 AM 51.7320 -5.3990 94° East 485 558 33,000  Level FlightAware ADS-B
Thu 05:35:09 AM 51.7260 -5.2700 94° East 483 556 33,000  Level FlightAware ADS-B
Thu 05:35:59 AM 51.7170 -5.0920 95° East 482 555 33,000  Level FlightAware ADS-B
Thu 05:36:33 AM 51.7105 -4.9678 95° East 488 562 33,000  Level FlightAware UK
Thu 05:36:38 AM 51.7100 -4.9560 95° East 480 552 33,000  Level FlightAware ADS-B
Thu 05:37:23 AM 51.7010 -4.7940 95° East 477 549 33,000  Level FlightAware ADS-B
Thu 05:38:02 AM 51.6970 -4.7120 94° East 478 550 33,000  Level FlightAware ADS-B
Thu 05:38:33 AM 51.6875 -4.5436 94° East 486 559 33,000  Level FlightAware UK
Thu 05:38:42 AM 51.6900 -4.5910 94° East 475 547 33,000  Level FlightAware ADS-B
Thu 05:39:29 AM 51.6750 -4.3550 96° East 464 534 33,000  Level FlightAware ADS-B
Thu 05:40:03 AM 51.6619 -4.2339 96° East 486 559 33,000  Level FlightAware UK
Thu 05:40:08 AM 51.6610 -4.2220 96° East 459 528 33,000 -421 Level FlightAware ADS-B
Thu 05:41:00 AM 51.6430 -4.0530 100° East 429 494 32,600 -840 Descending FlightAware ADS-B
Thu 05:41:48 AM 51.6290 -3.9090 99° East 404 465 31,600 -1,185 Descending FlightAware ADS-B
Thu 05:42:21 AM 51.6193 -3.8066 99° East 408 470 31,000 -1,067 Descending FlightAware UK
Thu 05:42:33 AM 51.6160 -3.7770 99° East 384 442 30,800 -1,625 Descending FlightAware ADS-B
Thu 05:43:09 AM 51.6060 -3.6770 99° East 378 435 29,700 -1,818 Descending FlightAware ADS-B
Thu 05:43:39 AM 51.5975 -3.5897 99° East 392 451 28,800 -1,636 Descending FlightAware UK
Thu 05:43:53 AM 51.5940 -3.5550 99° East 373 429 28,500 -1,500 Descending FlightAware ADS-B
Thu 05:44:35 AM 51.5820 -3.4420 100° East 363 418 27,400 -1,047 Descending FlightAware ADS-B
Thu 05:45:19 AM 51.5700 -3.3280 100° East 361 415 27,000 -289 Descending FlightAware ADS-B
Thu 05:45:58 AM 51.5592 -3.2216 100° East 380 437 27,000  Level FlightAware UK
Thu 05:45:59 AM 51.5590 -3.2210 100° East 360 414 27,000 -1,000 Level FlightAware ADS-B
Thu 05:46:34 AM 51.5490 -3.1267 100° East 376 433 26,400 -1,050 Descending FlightAware UK
Thu 05:46:39 AM 51.5480 -3.1160 100° East 358 412 26,300 -1,412 Descending FlightAware ADS-B
Thu 05:47:25 AM 51.5350 -2.9960 100° East 353 406 25,200 -1,116 Descending FlightAware ADS-B
Thu 05:48:05 AM 51.5240 -2.8940 100° East 344 396 24,700 -675 Descending FlightAware ADS-B
Thu 05:48:45 AM 51.5130 -2.7960 100° East 339 390 24,300 -623 Descending FlightAware ADS-B
Thu 05:49:22 AM 51.5030 -2.7014 100° East 364 419 23,900 -571 Descending FlightAware UK
Thu 05:49:27 AM 51.5020 -2.6940 100° East 335 386 23,900 -600 Level FlightAware ADS-B
Thu 05:50:12 AM 51.4900 -2.5820 100° East 329 379 23,400 -656 Descending FlightAware ADS-B
Thu 05:50:31 AM 51.4845 -2.5362 101° East 328 377 23,200 -692 Descending FlightAware ADS-B
Thu 05:51:04 AM 51.4758 -2.4582 100° East 326 375 22,800 -750 Descending FlightAware ADS-B
Thu 05:51:35 AM 51.4676 -2.3854 100° East 324 373 22,400 -787 Descending FlightAware ADS-B
Thu 05:52:05 AM 51.4596 -2.3148 100° East 319 367 22,000 -1,065 Descending FlightAware ADS-B
Thu 05:52:37 AM 51.4512 -2.2417 100° East 314 361 21,300 -1,455 Descending FlightAware ADS-B
Thu 05:53:11 AM 51.4422 -2.1632 100° East 310 357 20,400 -1,477 Descending FlightAware ADS-B
Thu 05:53:42 AM 51.4343 -2.0945 100° East 308 354 19,700 -1,355 Descending FlightAware ADS-B
Thu 05:54:13 AM 51.4263 -2.0262 101° East 307 353 19,000 -1,429 Descending FlightAware ADS-B
Thu 05:54:45 AM 51.4179 -1.9536 100° East 304 350 18,200 -1,452 Descending FlightAware ADS-B
Thu 05:55:15 AM 51.4102 -1.8879 101° East 300 345 17,500 -1,358 Descending FlightAware ADS-B
Thu 05:55:38 AM 51.4044 -1.8393 101° East 298 343 17,000 -1,358 Descending FlightAware ADS-B
Thu 05:56:08 AM 51.3966 -1.7740 101° East 297 342 16,300 -1,377 Descending FlightAware ADS-B
Thu 05:56:39 AM 51.3890 -1.7080 100° East 296 341 15,600 -1,343 Descending FlightAware ADS-B
Thu 05:57:15 AM 51.3793 -1.6287 101° East 302 348 14,800 -1,250 Descending FlightAware ADS-B
Thu 05:57:51 AM 51.3698 -1.5503 101° East 298 343 14,100 -1,125 Descending FlightAware ADS-B
Thu 05:58:03 AM 51.3664 -1.5252 102° East 294 338 13,900 -1,143 Descending FlightAware ADS-B
Thu 05:58:33 AM 51.3567 -1.4623 104° East 289 333 13,300 -900 Descending FlightAware ADS-B
Thu 05:59:03 AM 51.3474 -1.4017 104° East 273 314 13,000 -295 Descending FlightAware ADS-B
Thu 05:59:34 AM 51.3388 -1.3437 103° East 253 291 13,000  Level FlightAware ADS-B
Thu 06:00:04 AM 51.3307 -1.2893 103° East 253 291 13,000 -98 Level FlightAware ADS-B
Thu 06:00:35 AM 51.3224 -1.2332 103° East 254 292 12,900 -316 Descending FlightAware ADS-B
Thu 06:01:01 AM 51.3156 -1.1869 103° East 250 288 12,700 -529 Descending FlightAware ADS-B
Thu 06:01:09 AM 51.3140 -1.1720 100° East 250 288 12,600 -632 Descending FlightAware ADS-B
Thu 06:01:20 AM 51.3130 -1.1525 95° East 251 289 12,500 -450 Descending FlightAware ADS-B
Thu 06:01:49 AM 51.3123 -1.0986 91° East 251 289 12,300 -471 Descending FlightAware ADS-B
Thu 06:02:11 AM 51.3121 -1.0572 90° East 251 289 12,100 -340 Descending FlightAware ADS-B
Thu 06:02:42 AM 51.3116 -1.0005 91° East 254 292 12,000 -98 Descending FlightAware ADS-B
Thu 06:03:12 AM 51.3112 -0.9450 91° East 250 288 12,000  Level FlightAware ADS-B
Thu 06:03:35 AM 51.3108 -0.9018 91° East 250 288 12,000  Level FlightAware ADS-B
Thu 06:04:01 AM 51.3102 -0.8532 91° East 250 288 12,000  Level FlightAware ADS-B
Thu 06:04:32 AM 51.3096 -0.7965 91° East 250 288 12,000  Level FlightAware ADS-B
Thu 06:05:03 AM 51.3090 -0.7394 91° East 252 290 12,000  Level FlightAware ADS-B
Thu 06:05:33 AM 51.3082 -0.6831 91° East 253 291 12,000  Level FlightAware ADS-B
Thu 06:06:00 AM 51.3076 -0.6342 91° East 249 287 12,000  Level FlightAware ADS-B
Thu 06:06:30 AM 51.3068 -0.5771 91° East 258 297 12,000  Level FlightAware ADS-B
Thu 06:07:00 AM 51.3060 -0.5195 91° East 260 299 12,000 -235 Level FlightAware ADS-B
Thu 06:07:21 AM 51.3055 -0.4798 91° East 258 297 11,800 -414 Descending FlightAware ADS-B
Thu 06:07:29 AM 51.3057 -0.4653 89° East 260 299 11,800 -429 Level FlightAware ADS-B
Thu 06:07:35 AM 51.3071 -0.4536 79° East 263 303 11,700 -1,091 Descending FlightAware ADS-B
Thu 06:07:40 AM 51.3095 -0.4433 69° East 267 307 11,600 -545 Descending FlightAware ADS-B
Thu 06:07:46 AM 51.3128 -0.4345 59° Northeast 270 311 11,600  Level FlightAware ADS-B
Thu 06:07:51 AM 51.3170 -0.4265 50° Northeast 273 314 11,600 -600 Level FlightAware ADS-B
Thu 06:07:56 AM 51.3215 -0.4199 42° Northeast 277 319 11,500 -600 Descending FlightAware ADS-B
Thu 06:08:01 AM 51.3267 -0.4145 33° Northeast 280 322 11,500 -600 Level FlightAware ADS-B
Thu 06:08:06 AM 51.3335 -0.4095 25° Northeast 283 326 11,400 -462 Descending FlightAware ADS-B
Thu 06:08:14 AM 51.3425 -0.4048 18° North 284 327 11,400 -375 Level FlightAware ADS-B
Thu 06:08:22 AM 51.3529 -0.4005 15° North 286 329 11,300 -1,000 Descending FlightAware ADS-B
Thu 06:08:26 AM 51.3582 -0.3992 North 285 328 11,200 -1,714 Descending FlightAware ADS-B
Thu 06:08:29 AM 51.3626 -0.3989 North 286 329 11,100 -1,200 Descending FlightAware ADS-B
Thu 06:08:36 AM 51.3713 -0.4000 355° North 285 328 11,000 -600 Descending FlightAware ADS-B
Thu 06:08:39 AM 51.3759 -0.4019 346° North 285 328 11,000  Level FlightAware ADS-B
Thu 06:08:42 AM 51.3796 -0.4041 340° North 284 327 11,000 -857 Level FlightAware ADS-B
Thu 06:08:46 AM 51.3837 -0.4071 335° Northwest 284 327 10,900 -857 Descending FlightAware ADS-B
Thu 06:08:49 AM 51.3873 -0.4105 329° Northwest 284 327 10,900  Level FlightAware ADS-B
Thu 06:08:52 AM 51.3908 -0.4148 322° Northwest 283 326 10,900 -1,091 Level FlightAware ADS-B
Thu 06:09:00 AM 51.3980 -0.4269 314° West 281 323 10,700 -1,000 Descending FlightAware ADS-B
Thu 06:09:04 AM 51.4004 -0.4328 303° West 280 322 10,700 -750 Level FlightAware ADS-B
Thu 06:09:08 AM 51.4027 -0.4401 297° West 279 321 10,600 -1,091 Descending FlightAware ADS-B
Thu 06:09:15 AM 51.4054 -0.4546 287° West 274 315 10,500 -1,000 Descending FlightAware ADS-B
Thu 06:09:20 AM 51.4060 -0.4646 275° West 271 312 10,400 -1,200 Descending FlightAware ADS-B
Thu 06:09:25 AM 51.4057 -0.4741 267° West 267 307 10,300 -750 Descending FlightAware ADS-B
Thu 06:09:28 AM 51.4048 -0.4807 258° West 265 305 10,300 -750 Level FlightAware ADS-B
Thu 06:09:33 AM 51.4033 -0.4884 253° West 262 302 10,200 -1,091 Descending FlightAware ADS-B
Thu 06:09:39 AM 51.4001 -0.5003 247° West 259 298 10,100 -818 Descending FlightAware ADS-B
Thu 06:09:55 AM 51.3917 -0.5266 243° Southwest 259 298 9,900 -960 Descending FlightAware ADS-B
Thu 06:10:04 AM 51.3863 -0.5428 242° Southwest 259 298 9,700 -960 Descending FlightAware ADS-B
Thu 06:10:20 AM 51.3777 -0.5682 242° Southwest 257 296 9,500 -938 Descending FlightAware ADS-B
Thu 06:10:36 AM 51.3689 -0.5949 242° Southwest 253 291 9,200 -1,161 Descending FlightAware ADS-B
Thu 06:10:51 AM 51.3608 -0.6196 242° Southwest 252 290 8,900 -1,400 Descending FlightAware ADS-B
Thu 06:11:06 AM 51.3523 -0.6446 241° Southwest 253 291 8,500 -1,385 Descending FlightAware ADS-B
Thu 06:11:17 AM 51.3461 -0.6628 241° Southwest 252 290 8,300 -1,286 Descending FlightAware ADS-B
Thu 06:11:20 AM 51.3444 -0.6686 245° Southwest 252 290 8,200 -857 Descending FlightAware ADS-B
Thu 06:11:24 AM 51.3430 -0.6745 249° West 253 291 8,200 -857 Level FlightAware ADS-B
Thu 06:11:27 AM 51.3419 -0.6809 255° West 254 292 8,100 -1,500 Descending FlightAware ADS-B
Thu 06:11:32 AM 51.3411 -0.6902 262° West 254 292 8,000 -667 Descending FlightAware ADS-B
Thu 06:11:36 AM 51.3411 -0.6970 270° West 255 293 8,000  Level FlightAware ADS-B
Thu 06:11:39 AM 51.3415 -0.7027 276° West 256 295 8,000 -1,000 Level FlightAware ADS-B
Thu 06:11:42 AM 51.3422 -0.7086 281° West 256 295 7,900 -1,333 Descending FlightAware ADS-B
Thu 06:11:48 AM 51.3437 -0.7185 284° West 256 295 7,800 -1,125 Descending FlightAware ADS-B
Thu 06:11:58 AM 51.3469 -0.7370 285° West 255 293 7,600 -960 Descending FlightAware ADS-B
Thu 06:12:13 AM 51.3516 -0.7643 285° West 255 293 7,400 -1,000 Descending FlightAware ADS-B
Thu 06:12:28 AM 51.3561 -0.7919 285° West 253 291 7,100 -1,111 Descending FlightAware ADS-B
Thu 06:12:40 AM 51.3595 -0.8127 285° West 251 289 6,900 -1,125 Descending FlightAware ADS-B
Thu 06:12:44 AM 51.3613 -0.8208 290° West 251 289 6,800 -1,091 Descending FlightAware ADS-B
Thu 06:12:51 AM 51.3647 -0.8330 294° West 251 289 6,700 -947 Descending FlightAware ADS-B
Thu 06:13:03 AM 51.3707 -0.8514 298° West 250 288 6,500 -889 Descending FlightAware ADS-B
Thu 06:13:18 AM 51.3789 -0.8757 298° West 250 288 6,300 -857 Descending FlightAware ADS-B
Thu 06:13:31 AM 51.3861 -0.8971 298° West 246 283 6,100 -1,000 Descending FlightAware ADS-B
Thu 06:13:36 AM 51.3891 -0.9051 301° West 244 281 6,000 -667 Descending FlightAware ADS-B
Thu 06:13:40 AM 51.3918 -0.9108 307° West 242 278 6,000 -750 Level FlightAware ADS-B
Thu 06:13:44 AM 51.3953 -0.9163 316° Northwest 240 276 5,900 -750 Descending FlightAware ADS-B
Thu 06:13:48 AM 51.3980 -0.9198 321° Northwest 237 273 5,900  Level FlightAware ADS-B
Thu 06:13:52 AM 51.4021 -0.9236 330° Northwest 234 269 5,900  Level FlightAware ADS-B
Thu 06:13:56 AM 51.4059 -0.9260 338° Northwest 232 267 5,900 -857 Level FlightAware ADS-B
Thu 06:13:59 AM 51.4095 -0.9276 345° North 231 266 5,800 -857 Descending FlightAware ADS-B
Thu 06:14:03 AM 51.4132 -0.9287 350° North 228 262 5,800  Level FlightAware ADS-B
Thu 06:14:07 AM 51.4180 -0.9295 353° North 224 258 5,800 -500 Level FlightAware ADS-B
Thu 06:14:15 AM 51.4260 -0.9303 356° North 221 254 5,700 -923 Descending FlightAware ADS-B
Thu 06:14:20 AM 51.4312 -0.9297 North 218 251 5,600 -1,091 Descending FlightAware ADS-B
Thu 06:14:26 AM 51.4362 -0.9277 14° North 216 249 5,500 -600 Descending FlightAware ADS-B
Thu 06:14:30 AM 51.4405 -0.9245 25° Northeast 211 243 5,500 -750 Level FlightAware ADS-B
Thu 06:14:34 AM 51.4432 -0.9216 34° Northeast 207 238 5,400 -750 Descending FlightAware ADS-B
Thu 06:14:38 AM 51.4462 -0.9171 43° Northeast 204 235 5,400 -750 Level FlightAware ADS-B
Thu 06:14:42 AM 51.4486 -0.9125 50° Northeast 201 231 5,300 -857 Descending FlightAware ADS-B
Thu 06:14:45 AM 51.4503 -0.9090 53° Northeast 199 229 5,300 -632 Level FlightAware ADS-B
Thu 06:15:01 AM 51.4582 -0.8903 56° Northeast 195 224 5,100 -938 Descending FlightAware ADS-B
Thu 06:15:17 AM 51.4664 -0.8715 55° Northeast 193 222 4,800 -1,091 Descending FlightAware ADS-B
Thu 06:15:23 AM 51.4696 -0.8640 56° Northeast 191 220 4,700 -1,091 Descending FlightAware ADS-B
Thu 06:15:28 AM 51.4714 -0.8585 62° Northeast 189 217 4,600 -750 Descending FlightAware ADS-B
Thu 06:15:31 AM 51.4726 -0.8539 67° East 186 214 4,600  Level FlightAware ADS-B
Thu 06:15:35 AM 51.4738 -0.8488 69° East 185 213 4,600 -600 Level FlightAware ADS-B
Thu 06:15:41 AM 51.4751 -0.8405 76° East 185 213 4,500 -1,091 Descending FlightAware ADS-B
Thu 06:15:46 AM 51.4755 -0.8348 84° East 185 213 4,400 -667 Descending FlightAware ADS-B
Thu 06:15:50 AM 51.4758 -0.8285 86° East 185 213 4,400 -1,000 Level FlightAware ADS-B
Thu 06:15:58 AM 51.4759 -0.8183 89° East 185 213 4,200 -1,091 Descending FlightAware ADS-B
Thu 06:16:12 AM 51.4758 -0.7986 90° East 185 213 4,000 -818 Descending FlightAware ADS-B
Thu 06:16:20 AM 51.4758 -0.7880 90° East 185 213 3,900 -1,000 Descending FlightAware ADS-B
Thu 06:16:36 AM 51.4761 -0.7664 89° East 183 211 3,600 -1,125 Descending FlightAware ADS-B
Thu 06:16:52 AM 51.4762 -0.7445 90° East 182 209 3,300 -1,154 Descending FlightAware ADS-B
Thu 06:17:02 AM 51.4763 -0.7303 89° East 182 209 3,100 -923 Descending FlightAware ADS-B
Thu 06:17:18 AM 51.4764 -0.7091 90° East 181 208 2,900 -909 Descending FlightAware ADS-B
Thu 06:17:35 AM 51.4766 -0.6876 89° East 170 196 2,600 -938 Descending FlightAware ADS-B
Thu 06:17:50 AM 51.4767 -0.6688 90° East 166 191 2,400 -774 Descending FlightAware ADS-B
Thu 06:18:06 AM 51.4768 -0.6498 90° East 165 190 2,200 -968 Descending FlightAware ADS-B
Thu 06:18:21 AM 51.4769 -0.6319 89° East 159 183 1,900 -1,000 Descending FlightAware ADS-B
Thu 06:18:36 AM 51.4770 -0.6144 89° East 155 178 1,700 -811 Descending FlightAware ADS-B
Thu 06:18:58 AM 51.4771 -0.5884 90° East 155 178 1,400 -814 Descending FlightAware ADS-B
Thu 06:19:35 AM 51.4772 -0.5466 90° East 152 175 900 -766 Descending FlightAware UK
Thu 06:19:45 AM 51.4770 -0.5380 90° East 145 167 800 -667 Descending FlightAware ADS-B (CYTZ)
Thu 06:20:11 AM 51.4770 -0.5110 90° East 140 161 500 -474 Descending FlightAware ADS-B (CYTZ)
Thu 06:21:01 AM 51.4780 -0.4890 86° East 141 162 200 -234 Descending FlightAware ADS-B (CYTZ)
Thu 06:21:28 AM 51.4780 -0.4650 90° East 141 162 200  Level FlightAware ADS-B (CYTZ)
Thu 06:24:00 AM 51.4775 -0.4614 90° East  Level Estimated

Login

Don't have an account? Register now (free) for customized features, flight alerts, and more!